sensor_id;sensor_type;location;lat;lon;timestamp;pressure;altitude;pressure_sealevel;temperature;humidity
18678;BME280;9469;51.114;13.914;2023-05-02T00:04:15;98586.00;;;14.74;89.71
18678;BME280;9469;51.114;13.914;2023-05-02T00:09:21;98584.88;;;14.43;92.19
18678;BME280;9469;51.114;13.914;2023-05-02T00:14:29;98589.56;;;14.46;92.00
18678;BME280;9469;51.114;13.914;2023-05-02T00:19:37;98595.78;;;14.70;90.24
18678;BME280;9469;51.114;13.914;2023-05-02T00:24:42;98602.09;;;14.33;91.42
18678;BME280;9469;51.114;13.914;2023-05-02T00:29:51;98596.88;;;14.36;91.92
18678;BME280;9469;51.114;13.914;2023-05-02T00:34:56;98602.03;;;14.62;90.81
18678;BME280;9469;51.114;13.914;2023-05-02T00:40:02;98601.78;;;14.34;91.80
18678;BME280;9469;51.114;13.914;2023-05-02T00:45:11;98603.13;;;14.41;91.85
18678;BME280;9469;51.114;13.914;2023-05-02T00:50:19;98608.56;;;14.32;92.64
18678;BME280;9469;51.114;13.914;2023-05-02T00:55:24;98605.84;;;14.11;93.94
18678;BME280;9469;51.114;13.914;2023-05-02T01:00:41;98606.44;;;14.17;93.79
18678;BME280;9469;51.114;13.914;2023-05-02T01:06:09;98611.69;;;14.05;94.98
18678;BME280;9469;51.114;13.914;2023-05-02T01:11:29;98603.69;;;14.05;94.49
18678;BME280;9469;51.114;13.914;2023-05-02T01:16:42;98600.25;;;14.04;95.39
18678;BME280;9469;51.114;13.914;2023-05-02T01:21:51;98601.22;;;14.00;93.89
18678;BME280;9469;51.114;13.914;2023-05-02T01:27:12;98597.41;;;14.01;93.24
18678;BME280;9469;51.114;13.914;2023-05-02T01:32:22;98596.56;;;13.88;94.92
18678;BME280;9469;51.114;13.914;2023-05-02T01:37:29;98600.72;;;13.77;94.82
18678;BME280;9469;51.114;13.914;2023-05-02T01:42:35;98599.38;;;13.62;95.48
18678;BME280;9469;51.114;13.914;2023-05-02T01:47:44;98600.72;;;13.77;94.80
18678;BME280;9469;51.114;13.914;2023-05-02T01:52:51;98597.16;;;13.64;95.05
18678;BME280;9469;51.114;13.914;2023-05-02T01:57:58;98597.53;;;13.54;96.49
18678;BME280;9469;51.114;13.914;2023-05-02T02:03:08;98589.59;;;13.66;95.42
18678;BME280;9469;51.114;13.914;2023-05-02T02:08:14;98587.34;;;13.98;94.04
18678;BME280;9469;51.114;13.914;2023-05-02T02:13:25;98592.97;;;14.05;92.80
18678;BME280;9469;51.114;13.914;2023-05-02T02:18:35;98606.94;;;13.90;93.23
18678;BME280;9469;51.114;13.914;2023-05-02T02:23:44;98607.78;;;13.82;95.21
18678;BME280;9469;51.114;13.914;2023-05-02T02:28:52;98606.59;;;13.91;94.99
18678;BME280;9469;51.114;13.914;2023-05-02T02:34:02;98618.31;;;13.78;94.31
18678;BME280;9469;51.114;13.914;2023-05-02T02:39:17;98617.50;;;13.86;94.22
18678;BME280;9469;51.114;13.914;2023-05-02T02:44:31;98616.75;;;13.77;94.21
18678;BME280;9469;51.114;13.914;2023-05-02T02:49:48;98635.59;;;13.81;93.66
18678;BME280;9469;51.114;13.914;2023-05-02T02:54:58;98644.19;;;13.95;93.01
18678;BME280;9469;51.114;13.914;2023-05-02T03:00:09;98648.38;;;14.04;93.44
18678;BME280;9469;51.114;13.914;2023-05-02T03:05:22;98656.16;;;13.89;93.90
18678;BME280;9469;51.114;13.914;2023-05-02T03:10:27;98655.78;;;13.99;92.85
18678;BME280;9469;51.114;13.914;2023-05-02T03:21:40;98667.44;;;13.65;93.90
18678;BME280;9469;51.114;13.914;2023-05-02T03:26:53;98675.06;;;13.84;92.67
18678;BME280;9469;51.114;13.914;2023-05-02T03:32:06;98676.44;;;13.52;93.96
18678;BME280;9469;51.114;13.914;2023-05-02T03:37:17;98681.72;;;13.69;92.95
18678;BME280;9469;51.114;13.914;2023-05-02T03:42:34;98701.44;;;13.47;93.74
18678;BME280;9469;51.114;13.914;2023-05-02T03:47:56;98703.81;;;13.40;94.31
18678;BME280;9469;51.114;13.914;2023-05-02T03:53:05;98696.47;;;13.20;95.35
18678;BME280;9469;51.114;13.914;2023-05-02T03:58:20;98704.28;;;13.42;94.60
18678;BME280;9469;51.114;13.914;2023-05-02T04:03:29;98706.97;;;13.25;94.82
18678;BME280;9469;51.114;13.914;2023-05-02T04:08:40;98713.59;;;13.36;94.69
18678;BME280;9469;51.114;13.914;2023-05-02T04:13:46;98727.66;;;13.62;92.98
18678;BME280;9469;51.114;13.914;2023-05-02T04:18:54;98735.13;;;13.31;94.59
18678;BME280;9469;51.114;13.914;2023-05-02T04:24:03;98750.38;;;13.22;94.13
18678;BME280;9469;51.114;13.914;2023-05-02T04:29:11;98756.03;;;13.29;94.66
18678;BME280;9469;51.114;13.914;2023-05-02T04:34:19;98771.91;;;13.09;95.38
18678;BME280;9469;51.114;13.914;2023-05-02T04:39:27;98773.16;;;13.20;94.75
18678;BME280;9469;51.114;13.914;2023-05-02T04:44:51;98777.38;;;13.29;94.43
18678;BME280;9469;51.114;13.914;2023-05-02T04:49:57;98788.84;;;13.13;94.61
18678;BME280;9469;51.114;13.914;2023-05-02T04:55:06;98796.38;;;13.02;95.21
18678;BME280;9469;51.114;13.914;2023-05-02T05:00:13;98790.25;;;13.19;94.83
18678;BME280;9469;51.114;13.914;2023-05-02T05:05:19;98803.31;;;13.20;94.23
18678;BME280;9469;51.114;13.914;2023-05-02T05:10:27;98812.06;;;13.04;95.36
18678;BME280;9469;51.114;13.914;2023-05-02T05:15:34;98814.63;;;13.17;94.22
18678;BME280;9469;51.114;13.914;2023-05-02T05:20:55;98826.09;;;13.09;94.88
18678;BME280;9469;51.114;13.914;2023-05-02T05:26:16;98828.28;;;13.41;93.08
18678;BME280;9469;51.114;13.914;2023-05-02T05:31:25;98830.00;;;13.12;93.06
18678;BME280;9469;51.114;13.914;2023-05-02T05:36:33;98841.81;;;13.19;93.03
18678;BME280;9469;51.114;13.914;2023-05-02T05:41:47;98851.38;;;13.12;93.16
18678;BME280;9469;51.114;13.914;2023-05-02T05:46:57;98850.47;;;13.33;91.34
18678;BME280;9469;51.114;13.914;2023-05-02T05:52:12;98865.06;;;13.19;91.03
18678;BME280;9469;51.114;13.914;2023-05-02T05:57:21;98859.25;;;13.34;89.99
18678;BME280;9469;51.114;13.914;2023-05-02T06:02:32;98879.03;;;13.93;87.58
18678;BME280;9469;51.114;13.914;2023-05-02T06:07:40;98886.28;;;13.66;86.67
18678;BME280;9469;51.114;13.914;2023-05-02T06:12:52;98898.53;;;13.93;85.60
18678;BME280;9469;51.114;13.914;2023-05-02T06:18:02;98905.19;;;14.88;81.75
18678;BME280;9469;51.114;13.914;2023-05-02T06:23:11;98910.69;;;14.92;77.66
18678;BME280;9469;51.114;13.914;2023-05-02T06:28:19;98917.38;;;14.77;79.29
18678;BME280;9469;51.114;13.914;2023-05-02T06:33:33;98929.84;;;14.73;79.70
18678;BME280;9469;51.114;13.914;2023-05-02T06:38:40;98942.00;;;14.62;80.88
18678;BME280;9469;51.114;13.914;2023-05-02T06:43:47;98959.53;;;14.89;78.96
18678;BME280;9469;51.114;13.914;2023-05-02T06:48:53;98965.97;;;14.96;79.91
18678;BME280;9469;51.114;13.914;2023-05-02T06:53:58;98972.72;;;15.02;80.28
18678;BME280;9469;51.114;13.914;2023-05-02T06:59:06;98971.38;;;14.79;77.94
18678;BME280;9469;51.114;13.914;2023-05-02T07:04:12;98985.69;;;14.37;80.84
18678;BME280;9469;51.114;13.914;2023-05-02T07:09:20;98987.72;;;14.49;79.44
18678;BME280;9469;51.114;13.914;2023-05-02T07:14:28;98993.94;;;14.78;76.79
18678;BME280;9469;51.114;13.914;2023-05-02T07:19:34;99002.44;;;14.80;78.66
18678;BME280;9469;51.114;13.914;2023-05-02T07:24:39;99010.97;;;15.12;76.54
18678;BME280;9469;51.114;13.914;2023-05-02T07:29:48;99015.59;;;14.39;78.55
18678;BME280;9469;51.114;13.914;2023-05-02T07:34:53;99025.16;;;14.57;78.97
18678;BME280;9469;51.114;13.914;2023-05-02T07:39:58;99036.28;;;14.85;79.03
18678;BME280;9469;51.114;13.914;2023-05-02T07:45:09;99038.56;;;16.00;75.68
18678;BME280;9469;51.114;13.914;2023-05-02T07:50:14;99047.53;;;15.54;78.09
18678;BME280;9469;51.114;13.914;2023-05-02T07:55:20;99058.38;;;14.22;81.56
18678;BME280;9469;51.114;13.914;2023-05-02T08:00:30;99063.47;;;15.13;80.64
18678;BME280;9469;51.114;13.914;2023-05-02T08:05:35;99075.25;;;15.20;81.15
18678;BME280;9469;51.114;13.914;2023-05-02T08:10:40;99081.88;;;14.42;82.90
18678;BME280;9469;51.114;13.914;2023-05-02T08:15:49;99099.81;;;14.33;85.00
18678;BME280;9469;51.114;13.914;2023-05-02T08:21:00;99102.28;;;14.72;86.06
18678;BME280;9469;51.114;13.914;2023-05-02T08:26:05;99113.53;;;14.40;90.33
18678;BME280;9469;51.114;13.914;2023-05-02T08:31:13;99117.91;;;14.53;88.90
18678;BME280;9469;51.114;13.914;2023-05-02T08:36:20;99119.72;;;15.04;88.21
18678;BME280;9469;51.114;13.914;2023-05-02T08:41:28;99130.41;;;15.76;81.48
18678;BME280;9469;51.114;13.914;2023-05-02T08:46:40;99123.28;;;15.80;80.86
18678;BME280;9469;51.114;13.914;2023-05-02T08:51:48;99132.56;;;15.53;81.25
18678;BME280;9469;51.114;13.914;2023-05-02T08:56:56;99138.56;;;15.79;79.04
18678;BME280;9469;51.114;13.914;2023-05-02T09:02:11;99135.78;;;16.26;77.44
18678;BME280;9469;51.114;13.914;2023-05-02T09:07:18;99150.94;;;15.63;79.89
18678;BME280;9469;51.114;13.914;2023-05-02T09:12:24;99145.97;;;16.62;78.09
18678;BME280;9469;51.114;13.914;2023-05-02T09:17:47;99144.56;;;16.06;77.15
18678;BME280;9469;51.114;13.914;2023-05-02T09:22:52;99151.16;;;16.37;77.45
18678;BME280;9469;51.114;13.914;2023-05-02T09:27:57;99144.81;;;17.16;73.75
18678;BME280;9469;51.114;13.914;2023-05-02T09:33:06;99155.25;;;17.74;72.73
18678;BME280;9469;51.114;13.914;2023-05-02T09:38:18;99163.03;;;17.43;72.14
18678;BME280;9469;51.114;13.914;2023-05-02T09:43:25;99171.50;;;16.68;73.55
18678;BME280;9469;51.114;13.914;2023-05-02T09:48:52;99175.50;;;17.60;71.05
18678;BME280;9469;51.114;13.914;2023-05-02T09:53:58;99176.19;;;17.57;71.56
18678;BME280;9469;51.114;13.914;2023-05-02T09:59:13;99200.00;;;16.60;71.68
18678;BME280;9469;51.114;13.914;2023-05-02T10:04:23;99195.31;;;17.10;71.87
18678;BME280;9469;51.114;13.914;2023-05-02T10:09:32;99186.06;;;18.25;69.88
18678;BME280;9469;51.114;13.914;2023-05-02T10:14:47;99185.84;;;17.70;73.25
18678;BME280;9469;51.114;13.914;2023-05-02T10:20:10;99205.13;;;16.53;75.04
18678;BME280;9469;51.114;13.914;2023-05-02T10:25:22;99200.53;;;17.28;73.10
18678;BME280;9469;51.114;13.914;2023-05-02T10:30:29;99201.78;;;17.87;73.67
18678;BME280;9469;51.114;13.914;2023-05-02T10:35:43;99218.06;;;16.51;77.97
18678;BME280;9469;51.114;13.914;2023-05-02T10:41:05;99214.91;;;17.88;74.76
18678;BME280;9469;51.114;13.914;2023-05-02T10:46:29;99216.78;;;17.76;72.70
18678;BME280;9469;51.114;13.914;2023-05-02T10:51:46;99216.44;;;17.00;74.82
18678;BME280;9469;51.114;13.914;2023-05-02T10:57:07;99220.28;;;16.20;80.80
18678;BME280;9469;51.114;13.914;2023-05-02T11:13:48;99220.00;;;16.13;82.01
18678;BME280;9469;51.114;13.914;2023-05-02T11:18:57;99222.00;;;16.24;83.08
18678;BME280;9469;51.114;13.914;2023-05-02T11:29:55;99228.00;;;16.80;80.70
18678;BME280;9469;51.114;13.914;2023-05-02T11:35:00;99220.56;;;16.77;79.41
18678;BME280;9469;51.114;13.914;2023-05-02T11:40:11;99220.75;;;16.72;81.67
18678;BME280;9469;51.114;13.914;2023-05-02T11:45:34;99235.19;;;16.67;79.02
18678;BME280;9469;51.114;13.914;2023-05-02T11:50:41;99238.72;;;16.80;78.79
18678;BME280;9469;51.114;13.914;2023-05-02T11:55:52;99234.88;;;16.69;80.51
18678;BME280;9469;51.114;13.914;2023-05-02T12:01:10;99230.00;;;17.57;75.21
18678;BME280;9469;51.114;13.914;2023-05-02T12:06:17;99245.16;;;16.67;81.08
18678;BME280;9469;51.114;13.914;2023-05-02T12:11:22;99251.47;;;16.33;82.38
18678;BME280;9469;51.114;13.914;2023-05-02T12:16:31;99250.47;;;16.46;83.22
18678;BME280;9469;51.114;13.914;2023-05-02T12:21:37;99239.56;;;16.72;82.43
18678;BME280;9469;51.114;13.914;2023-05-02T12:26:44;99254.13;;;16.91;79.65
18678;BME280;9469;51.114;13.914;2023-05-02T12:31:57;99256.81;;;16.12;81.35
18678;BME280;9469;51.114;13.914;2023-05-02T12:37:05;99266.53;;;15.79;81.84
18678;BME280;9469;51.114;13.914;2023-05-02T12:42:11;99259.06;;;16.31;79.83
18678;BME280;9469;51.114;13.914;2023-05-02T12:47:20;99257.59;;;16.71;79.43
18678;BME280;9469;51.114;13.914;2023-05-02T12:52:46;99257.84;;;16.99;79.26
18678;BME280;9469;51.114;13.914;2023-05-02T12:57:59;99255.88;;;17.29;78.07
18678;BME280;9469;51.114;13.914;2023-05-02T13:03:08;99250.56;;;17.85;77.05
18678;BME280;9469;51.114;13.914;2023-05-02T13:08:14;99261.38;;;17.32;78.70
18678;BME280;9469;51.114;13.914;2023-05-02T13:13:22;99250.59;;;17.98;76.30
18678;BME280;9469;51.114;13.914;2023-05-02T13:18:30;99250.28;;;17.66;76.55
18678;BME280;9469;51.114;13.914;2023-05-02T13:23:39;99258.00;;;17.23;75.99
18678;BME280;9469;51.114;13.914;2023-05-02T13:28:47;99251.91;;;17.79;73.47
18678;BME280;9469;51.114;13.914;2023-05-02T13:33:55;99254.47;;;17.76;75.04
18678;BME280;9469;51.114;13.914;2023-05-02T13:39:00;99254.25;;;17.81;74.53
18678;BME280;9469;51.114;13.914;2023-05-02T13:44:06;99259.16;;;17.34;75.64
18678;BME280;9469;51.114;13.914;2023-05-02T13:49:18;99255.69;;;17.13;76.73
18678;BME280;9469;51.114;13.914;2023-05-02T13:54:35;99266.25;;;17.18;76.98
18678;BME280;9469;51.114;13.914;2023-05-02T13:59:43;99264.81;;;17.20;75.83
18678;BME280;9469;51.114;13.914;2023-05-02T14:04:55;99257.09;;;18.09;72.81
18678;BME280;9469;51.114;13.914;2023-05-02T14:10:02;99263.47;;;18.04;73.70
18678;BME280;9469;51.114;13.914;2023-05-02T14:20:53;99264.06;;;17.32;77.71
18678;BME280;9469;51.114;13.914;2023-05-02T14:26:01;99262.47;;;16.78;77.68
18678;BME280;9469;51.114;13.914;2023-05-02T14:31:10;99269.78;;;17.10;77.84
18678;BME280;9469;51.114;13.914;2023-05-02T14:36:21;99263.09;;;17.69;77.53
18678;BME280;9469;51.114;13.914;2023-05-02T14:41:28;99276.59;;;17.07;78.71
18678;BME280;9469;51.114;13.914;2023-05-02T14:46:52;99277.50;;;17.53;78.00
18678;BME280;9469;51.114;13.914;2023-05-02T14:52:05;99284.88;;;17.23;78.84
18678;BME280;9469;51.114;13.914;2023-05-02T14:57:11;99291.41;;;17.55;77.43
18678;BME280;9469;51.114;13.914;2023-05-02T15:02:16;99292.25;;;16.85;80.07
18678;BME280;9469;51.114;13.914;2023-05-02T15:07:26;99308.19;;;16.31;85.52
18678;BME280;9469;51.114;13.914;2023-05-02T15:12:32;99315.78;;;16.29;86.42
18678;BME280;9469;51.114;13.914;2023-05-02T15:17:37;99328.22;;;16.34;86.70
18678;BME280;9469;51.114;13.914;2023-05-02T15:22:47;99319.97;;;16.10;88.38
18678;BME280;9469;51.114;13.914;2023-05-02T15:27:57;99329.66;;;16.31;88.24
18678;BME280;9469;51.114;13.914;2023-05-02T15:33:06;99337.78;;;16.14;88.78
18678;BME280;9469;51.114;13.914;2023-05-02T15:38:15;99340.28;;;16.19;89.30
18678;BME280;9469;51.114;13.914;2023-05-02T15:43:21;99342.91;;;15.82;88.64
18678;BME280;9469;51.114;13.914;2023-05-02T15:48:30;99351.69;;;15.99;87.54
18678;BME280;9469;51.114;13.914;2023-05-02T15:53:39;99363.09;;;15.36;88.76
18678;BME280;9469;51.114;13.914;2023-05-02T15:58:45;99368.63;;;15.74;87.15
18678;BME280;9469;51.114;13.914;2023-05-02T16:03:53;99372.41;;;15.39;87.69
18678;BME280;9469;51.114;13.914;2023-05-02T16:09:01;99385.03;;;15.81;85.88
18678;BME280;9469;51.114;13.914;2023-05-02T16:14:08;99392.63;;;15.45;85.69
18678;BME280;9469;51.114;13.914;2023-05-02T16:19:15;99402.88;;;15.77;85.53
18678;BME280;9469;51.114;13.914;2023-05-02T16:24:24;99401.91;;;15.90;82.54
18678;BME280;9469;51.114;13.914;2023-05-02T16:29:30;99418.47;;;15.41;84.59
18678;BME280;9469;51.114;13.914;2023-05-02T16:34:35;99417.44;;;15.02;87.80
18678;BME280;9469;51.114;13.914;2023-05-02T16:39:44;99417.97;;;14.65;89.75
18678;BME280;9469;51.114;13.914;2023-05-02T16:44:50;99419.41;;;15.28;88.76
18678;BME280;9469;51.114;13.914;2023-05-02T16:49:55;99419.00;;;14.95;88.43
18678;BME280;9469;51.114;13.914;2023-05-02T16:55:06;99417.31;;;15.25;88.77
18678;BME280;9469;51.114;13.914;2023-05-02T17:00:17;99428.19;;;15.11;88.60
18678;BME280;9469;51.114;13.914;2023-05-02T17:05:24;99443.84;;;14.48;89.66
18678;BME280;9469;51.114;13.914;2023-05-02T17:10:35;99446.84;;;14.46;90.95
18678;BME280;9469;51.114;13.914;2023-05-02T17:15:40;99449.44;;;14.99;89.07
18678;BME280;9469;51.114;13.914;2023-05-02T17:20:47;99453.44;;;14.79;89.19
18678;BME280;9469;51.114;13.914;2023-05-02T17:25:55;99465.47;;;14.51;90.04
18678;BME280;9469;51.114;13.914;2023-05-02T17:31:02;99474.97;;;14.66;88.88
18678;BME280;9469;51.114;13.914;2023-05-02T17:36:08;99463.81;;;14.72;88.80
18678;BME280;9469;51.114;13.914;2023-05-02T17:41:15;99481.38;;;14.87;87.20
18678;BME280;9469;51.114;13.914;2023-05-02T17:46:20;99491.16;;;14.30;88.07
18678;BME280;9469;51.114;13.914;2023-05-02T17:51:26;99514.03;;;14.00;87.08
18678;BME280;9469;51.114;13.914;2023-05-02T17:56:41;99512.97;;;14.23;83.63
18678;BME280;9469;51.114;13.914;2023-05-02T18:01:47;99527.34;;;13.92;84.27
18678;BME280;9469;51.114;13.914;2023-05-02T18:06:52;99526.88;;;14.12;82.57
18678;BME280;9469;51.114;13.914;2023-05-02T18:12:02;99540.09;;;13.59;82.71
18678;BME280;9469;51.114;13.914;2023-05-02T18:17:08;99540.06;;;13.73;81.35
18678;BME280;9469;51.114;13.914;2023-05-02T18:22:13;99558.28;;;13.71;80.91
18678;BME280;9469;51.114;13.914;2023-05-02T18:27:23;99559.78;;;13.77;79.58
18678;BME280;9469;51.114;13.914;2023-05-02T18:32:32;99559.09;;;13.57;79.92
18678;BME280;9469;51.114;13.914;2023-05-02T18:37:39;99566.84;;;13.45;80.67
18678;BME280;9469;51.114;13.914;2023-05-02T18:42:47;99571.28;;;13.36;81.10
18678;BME280;9469;51.114;13.914;2023-05-02T18:47:52;99570.97;;;13.38;82.90
18678;BME280;9469;51.114;13.914;2023-05-02T18:52:59;99574.84;;;12.86;86.12
18678;BME280;9469;51.114;13.914;2023-05-02T18:58:07;99582.09;;;12.67;86.93
18678;BME280;9469;51.114;13.914;2023-05-02T19:03:14;99589.25;;;12.71;87.45
18678;BME280;9469;51.114;13.914;2023-05-02T19:08:20;99588.94;;;12.41;88.98
18678;BME280;9469;51.114;13.914;2023-05-02T19:13:28;99596.06;;;12.64;87.71
18678;BME280;9469;51.114;13.914;2023-05-02T19:18:35;99600.25;;;12.51;86.26
18678;BME280;9469;51.114;13.914;2023-05-02T19:23:41;99612.09;;;12.45;84.39
18678;BME280;9469;51.114;13.914;2023-05-02T19:28:49;99606.13;;;12.67;83.54
18678;BME280;9469;51.114;13.914;2023-05-02T19:33:55;99620.47;;;12.57;83.29
18678;BME280;9469;51.114;13.914;2023-05-02T19:39:01;99615.94;;;12.20;84.34
18678;BME280;9469;51.114;13.914;2023-05-02T19:44:09;99637.97;;;12.07;85.10
18678;BME280;9469;51.114;13.914;2023-05-02T19:49:15;99633.06;;;12.33;84.79
18678;BME280;9469;51.114;13.914;2023-05-02T19:54:20;99630.69;;;12.50;83.32
18678;BME280;9469;51.114;13.914;2023-05-02T19:59:28;99635.50;;;12.67;82.81
18678;BME280;9469;51.114;13.914;2023-05-02T20:04:33;99659.56;;;12.30;83.61
18678;BME280;9469;51.114;13.914;2023-05-02T20:09:39;99657.34;;;12.69;82.74
18678;BME280;9469;51.114;13.914;2023-05-02T20:14:47;99655.28;;;12.66;82.89
18678;BME280;9469;51.114;13.914;2023-05-02T20:19:54;99659.97;;;12.18;84.79
18678;BME280;9469;51.114;13.914;2023-05-02T20:24:59;99662.13;;;12.16;84.72
18678;BME280;9469;51.114;13.914;2023-05-02T20:30:10;99670.19;;;12.11;83.84
18678;BME280;9469;51.114;13.914;2023-05-02T20:35:17;99674.78;;;12.05;83.28
18678;BME280;9469;51.114;13.914;2023-05-02T20:40:22;99673.84;;;11.73;83.10
18678;BME280;9469;51.114;13.914;2023-05-02T20:45:31;99676.72;;;11.76;82.49
18678;BME280;9469;51.114;13.914;2023-05-02T20:50:38;99672.38;;;11.85;81.63
18678;BME280;9469;51.114;13.914;2023-05-02T20:55:43;99669.88;;;11.70;82.85
18678;BME280;9469;51.114;13.914;2023-05-02T21:00:50;99688.22;;;11.19;85.57
18678;BME280;9469;51.114;13.914;2023-05-02T21:05:56;99693.22;;;11.54;83.86
18678;BME280;9469;51.114;13.914;2023-05-02T21:11:10;99699.75;;;11.10;84.30
18678;BME280;9469;51.114;13.914;2023-05-02T21:16:19;99700.28;;;11.12;85.87
18678;BME280;9469;51.114;13.914;2023-05-02T21:21:26;99709.31;;;11.11;86.19
18678;BME280;9469;51.114;13.914;2023-05-02T21:26:33;99717.06;;;11.41;85.75
18678;BME280;9469;51.114;13.914;2023-05-02T21:31:40;99717.59;;;11.38;85.08
18678;BME280;9469;51.114;13.914;2023-05-02T21:36:46;99718.13;;;11.40;84.47
18678;BME280;9469;51.114;13.914;2023-05-02T21:41:52;99727.06;;;11.25;85.51
18678;BME280;9469;51.114;13.914;2023-05-02T21:46:59;99715.06;;;11.28;85.57
18678;BME280;9469;51.114;13.914;2023-05-02T21:52:05;99717.34;;;11.39;84.26
18678;BME280;9469;51.114;13.914;2023-05-02T21:57:10;99725.84;;;11.41;84.71
18678;BME280;9469;51.114;13.914;2023-05-02T22:02:18;99729.13;;;11.62;83.33
18678;BME280;9469;51.114;13.914;2023-05-02T22:07:25;99734.72;;;11.32;84.92
18678;BME280;9469;51.114;13.914;2023-05-02T22:12:31;99729.09;;;11.33;86.02
18678;BME280;9469;51.114;13.914;2023-05-02T22:17:39;99723.00;;;11.33;86.04
18678;BME280;9469;51.114;13.914;2023-05-02T22:22:47;99734.03;;;11.50;84.03
18678;BME280;9469;51.114;13.914;2023-05-02T22:27:55;99730.19;;;11.61;83.86
18678;BME280;9469;51.114;13.914;2023-05-02T22:33:04;99725.59;;;11.38;84.83
18678;BME280;9469;51.114;13.914;2023-05-02T22:38:13;99727.66;;;11.46;84.53
18678;BME280;9469;51.114;13.914;2023-05-02T22:43:19;99731.72;;;11.38;85.59
18678;BME280;9469;51.114;13.914;2023-05-02T22:48:26;99735.69;;;11.41;84.89
18678;BME280;9469;51.114;13.914;2023-05-02T22:53:32;99744.47;;;11.46;83.91
18678;BME280;9469;51.114;13.914;2023-05-02T22:58:36;99743.25;;;10.95;87.66
18678;BME280;9469;51.114;13.914;2023-05-02T23:03:45;99746.59;;;11.11;87.16
18678;BME280;9469;51.114;13.914;2023-05-02T23:08:50;99748.00;;;10.64;90.07
18678;BME280;9469;51.114;13.914;2023-05-02T23:13:56;99745.28;;;11.08;88.35
18678;BME280;9469;51.114;13.914;2023-05-02T23:19:04;99743.66;;;10.78;88.52
18678;BME280;9469;51.114;13.914;2023-05-02T23:24:10;99749.25;;;11.11;90.63
18678;BME280;9469;51.114;13.914;2023-05-02T23:29:15;99755.50;;;11.30;87.47
18678;BME280;9469;51.114;13.914;2023-05-02T23:34:26;99752.19;;;11.14;89.19
18678;BME280;9469;51.114;13.914;2023-05-02T23:39:32;99764.47;;;10.66;91.50
18678;BME280;9469;51.114;13.914;2023-05-02T23:44:37;99753.91;;;10.95;91.03
18678;BME280;9469;51.114;13.914;2023-05-02T23:49:47;99763.09;;;11.13;89.98
18678;BME280;9469;51.114;13.914;2023-05-02T23:54:52;99769.78;;;10.71;90.80
18678;BME280;9469;51.114;13.914;2023-05-02T23:59:57;99772.34;;;10.81;91.13
